Time,TemperatureF,DewpointF,PressureIn,WindDirection,WindDirectionDegrees,WindSpeedMPH,WindSpeedGustMPH,Humidity,HourlyPrecipIn,Conditions,Clouds,dailyrainin,SoftwareType,DateUTC
2013-07-29 00:02:00,55.0,53.0,29.96,North,-999,-999.0,-999.0,90,-99.99,,,-99.99,,2013-07-29 07:02:00,
2013-07-29 00:12:00,55.0,53.0,29.96,North,-999,-999.0,-999.0,90,-99.99,,,-99.99,,2013-07-29 07:12:00,
2013-07-29 00:33:00,55.0,52.0,29.96,North,-999,-999.0,-999.0,91,-99.99,,,-99.99,,2013-07-29 07:33:00,
2013-07-29 00:43:00,55.0,52.0,29.96,North,-999,-999.0,-999.0,91,-99.99,,,-99.99,,2013-07-29 07:43:00,
2013-07-29 01:02:00,55.0,53.0,29.97,North,-999,-999.0,-999.0,92,-99.99,,,-99.99,,2013-07-29 08:02:00,
2013-07-29 01:12:00,55.0,53.0,29.97,North,-999,-999.0,-999.0,92,-99.99,,,-99.99,,2013-07-29 08:12:00,
2013-07-29 01:22:00,55.0,53.0,29.97,North,-999,-999.0,-999.0,92,-99.99,,,-99.99,,2013-07-29 08:22:00,
2013-07-29 01:33:00,55.0,53.0,29.97,North,-999,-999.0,-999.0,93,-99.99,,,-99.99,,2013-07-29 08:33:00,
2013-07-29 01:42:00,55.0,53.0,29.97,North,-999,-999.0,-999.0,93,-99.99,,,-99.99,,2013-07-29 08:42:00,
2013-07-29 02:02:00,55.0,53.0,29.96,North,-999,-999.0,-999.0,93,-99.99,,,-99.99,,2013-07-29 09:02:00,
2013-07-29 02:12:00,55.0,53.0,29.96,North,-999,-999.0,-999.0,93,-99.99,,,-99.99,,2013-07-29 09:12:00,
2013-07-29 02:33:00,55.0,53.0,29.97,North,-999,-999.0,-999.0,94,-99.99,,,-99.99,,2013-07-29 09:33:00,
2013-07-29 02:43:00,55.0,53.0,29.97,North,-999,-999.0,-999.0,94,-99.99,,,-99.99,,2013-07-29 09:43:00,
2013-07-29 02:53:00,54.0,53.0,29.97,North,-999,-999.0,-999.0,94,-99.99,,,-99.99,,2013-07-29 09:53:00,
2013-07-29 03:02:00,54.0,53.0,29.97,North,-999,-999.0,-999.0,94,-99.99,,,-99.99,,2013-07-29 10:02:00,
2013-07-29 03:13:00,54.0,53.0,29.97,North,-999,-999.0,-999.0,94,-99.99,,,-99.99,,2013-07-29 10:13:00,
2013-07-29 03:23:00,54.0,53.0,29.97,North,-999,-999.0,-999.0,94,-99.99,,,-99.99,,2013-07-29 10:23:00,
2013-07-29 03:35:00,54.0,53.0,29.97,North,-999,-999.0,-999.0,95,-99.99,,,-99.99,,2013-07-29 10:35:00,
2013-07-29 03:45:00,54.0,53.0,29.97,North,-999,-999.0,-999.0,95,-99.99,,,-99.99,,2013-07-29 10:45:00,
2013-07-29 03:53:00,54.0,53.0,29.97,North,-999,-999.0,-999.0,95,-99.99,,,-99.99,,2013-07-29 10:53:00,
2013-07-29 04:03:00,54.0,53.0,29.97,North,-999,-999.0,-999.0,95,-99.99,,,-99.99,,2013-07-29 11:03:00,
2013-07-29 04:34:00,54.0,53.0,29.97,North,-999,-999.0,-999.0,96,-99.99,,,-99.99,,2013-07-29 11:34:00,
2013-07-29 04:44:00,54.0,53.0,29.97,North,-999,-999.0,-999.0,96,-99.99,,,-99.99,,2013-07-29 11:44:00,
2013-07-29 04:54:00,53.0,52.0,29.98,North,-999,-999.0,-999.0,96,-99.99,,,-99.99,,2013-07-29 11:54:00,
2013-07-29 05:05:00,53.0,52.0,29.98,North,-999,-999.0,-999.0,96,-99.99,,,-99.99,,2013-07-29 12:05:00,
2013-07-29 05:13:00,53.0,52.0,29.98,North,-999,-999.0,-999.0,96,-99.99,,,-99.99,,2013-07-29 12:13:00,
2013-07-29 05:35:00,53.0,52.0,29.98,North,-999,-999.0,-999.0,96,-99.99,,,-99.99,,2013-07-29 12:35:00,
2013-07-29 05:44:00,53.0,52.0,29.98,North,-999,-999.0,-999.0,96,-99.99,,,-99.99,,2013-07-29 12:44:00,
2013-07-29 05:54:00,53.0,52.0,29.98,North,-999,-999.0,-999.0,96,-99.99,,,-99.99,,2013-07-29 12:54:00,
2013-07-29 06:03:00,53.0,52.0,29.98,North,-999,-999.0,-999.0,96,-99.99,,,-99.99,,2013-07-29 13:03:00,
2013-07-29 06:14:00,53.0,52.0,29.98,North,-999,-999.0,-999.0,96,-99.99,,,-99.99,,2013-07-29 13:14:00,
2013-07-29 06:35:00,53.0,52.0,29.99,North,-999,-999.0,-999.0,97,-99.99,,,-99.99,,2013-07-29 13:35:00,
2013-07-29 06:43:00,53.0,52.0,29.99,North,-999,-999.0,-999.0,97,-99.99,,,-99.99,,2013-07-29 13:43:00,
2013-07-29 07:03:00,53.0,52.0,29.99,North,-999,-999.0,-999.0,97,-99.99,,,-99.99,,2013-07-29 14:03:00,
2013-07-29 07:12:00,53.0,52.0,29.99,North,-999,-999.0,-999.0,97,-99.99,,,-99.99,,2013-07-29 14:12:00,
2013-07-29 07:33:00,54.0,53.0,30.00,North,-999,-999.0,-999.0,98,-99.99,,,-99.99,,2013-07-29 14:33:00,
2013-07-29 07:43:00,54.0,53.0,30.00,North,-999,-999.0,-999.0,98,-99.99,,,-99.99,,2013-07-29 14:43:00,
2013-07-29 08:05:00,54.0,54.0,30.01,North,-999,-999.0,-999.0,98,-99.99,,,-99.99,,2013-07-29 15:05:00,
2013-07-29 08:12:00,54.0,54.0,30.01,North,-999,-999.0,-999.0,98,-99.99,,,-99.99,,2013-07-29 15:12:00,
2013-07-29 08:36:00,54.0,54.0,30.01,North,-999,-999.0,-999.0,98,-99.99,,,-99.99,,2013-07-29 15:36:00,
2013-07-29 08:44:00,54.0,54.0,30.01,North,-999,-999.0,-999.0,98,-99.99,,,-99.99,,2013-07-29 15:44:00,
2013-07-29 09:04:00,54.0,54.0,30.01,North,-999,-999.0,-999.0,98,-99.99,,,-99.99,,2013-07-29 16:04:00,
2013-07-29 09:12:00,54.0,54.0,30.01,North,-999,-999.0,-999.0,98,-99.99,,,-99.99,,2013-07-29 16:12:00,
2013-07-29 09:36:00,55.0,54.0,30.02,North,-999,-999.0,-999.0,98,-99.99,,,-99.99,,2013-07-29 16:36:00,
2013-07-29 09:44:00,55.0,54.0,30.02,North,-999,-999.0,-999.0,98,-99.99,,,-99.99,,2013-07-29 16:44:00,
2013-07-29 10:06:00,55.0,55.0,30.02,North,-999,-999.0,-999.0,98,-99.99,,,-99.99,,2013-07-29 17:06:00,
2013-07-29 10:13:00,55.0,55.0,30.02,North,-999,-999.0,-999.0,98,-99.99,,,-99.99,,2013-07-29 17:13:00,
2013-07-29 10:23:00,55.0,55.0,30.02,North,-999,-999.0,-999.0,98,-99.99,,,-99.99,,2013-07-29 17:23:00,
2013-07-29 10:37:00,55.0,55.0,30.01,North,-999,-999.0,-999.0,98,-99.99,,,-99.99,,2013-07-29 17:37:00,
2013-07-29 10:43:00,55.0,55.0,30.01,North,-999,-999.0,-999.0,98,-99.99,,,-99.99,,2013-07-29 17:43:00,
2013-07-29 11:04:00,56.0,55.0,30.02,North,-999,-999.0,-999.0,98,-99.99,,,-99.99,,2013-07-29 18:04:00,
2013-07-29 11:13:00,56.0,55.0,30.02,North,-999,-999.0,-999.0,98,-99.99,,,-99.99,,2013-07-29 18:13:00,
2013-07-29 11:23:00,56.0,55.0,30.02,North,-999,-999.0,-999.0,98,-99.99,,,-99.99,,2013-07-29 18:23:00,
2013-07-29 11:34:00,56.0,55.0,30.01,North,-999,-999.0,-999.0,97,-99.99,,,-99.99,,2013-07-29 18:34:00,
2013-07-29 11:43:00,56.0,55.0,30.01,North,-999,-999.0,-999.0,97,-99.99,,,-99.99,,2013-07-29 18:43:00,
2013-07-29 11:53:00,56.0,55.0,30.02,North,-999,-999.0,-999.0,96,-99.99,,,-99.99,,2013-07-29 18:53:00,
2013-07-29 12:03:00,56.0,55.0,30.02,North,-999,-999.0,-999.0,96,-99.99,,,-99.99,,2013-07-29 19:03:00,
2013-07-29 12:14:00,56.0,55.0,30.02,North,-999,-999.0,-999.0,96,-99.99,,,-99.99,,2013-07-29 19:14:00,
2013-07-29 13:04:00,59.0,57.0,30.01,North,-999,-999.0,-999.0,93,-99.99,,,-99.99,,2013-07-29 20:04:00,
2013-07-29 13:14:00,59.0,57.0,30.01,North,-999,-999.0,-999.0,93,-99.99,,,-99.99,,2013-07-29 20:14:00,
2013-07-29 13:33:00,62.0,59.0,30.00,North,-999,-999.0,-999.0,90,-99.99,,,-99.99,,2013-07-29 20:33:00,
2013-07-29 13:46:00,62.0,59.0,30.00,North,-999,-999.0,-999.0,90,-99.99,,,-99.99,,2013-07-29 20:46:00,
2013-07-29 14:04:00,63.0,57.0,30.00,North,-999,-999.0,-999.0,82,-99.99,,,-99.99,,2013-07-29 21:04:00,
2013-07-29 14:14:00,63.0,57.0,30.00,North,-999,-999.0,-999.0,82,-99.99,,,-99.99,,2013-07-29 21:14:00,
2013-07-29 14:44:00,63.0,57.0,29.99,North,-999,-999.0,-999.0,80,-99.99,,,-99.99,,2013-07-29 21:44:00,
2013-07-29 15:03:00,64.0,56.0,29.99,North,-999,-999.0,-999.0,73,-99.99,,,-99.99,,2013-07-29 22:03:00,
2013-07-29 15:13:00,64.0,56.0,29.99,North,-999,-999.0,-999.0,73,-99.99,,,-99.99,,2013-07-29 22:13:00,
2013-07-29 15:35:00,62.0,55.0,29.98,North,-999,-999.0,-999.0,77,-99.99,,,-99.99,,2013-07-29 22:35:00,
2013-07-29 15:43:00,62.0,55.0,29.98,North,-999,-999.0,-999.0,77,-99.99,,,-99.99,,2013-07-29 22:43:00,
2013-07-29 16:04:00,63.0,56.0,29.98,North,-999,-999.0,-999.0,77,-99.99,,,-99.99,,2013-07-29 23:04:00,
2013-07-29 16:12:00,63.0,56.0,29.98,North,-999,-999.0,-999.0,77,-99.99,,,-99.99,,2013-07-29 23:12:00,
2013-07-29 16:23:00,63.0,56.0,29.98,North,-999,-999.0,-999.0,77,-99.99,,,-99.99,,2013-07-29 23:23:00,
2013-07-29 16:44:00,67.0,58.0,29.98,North,-999,-999.0,-999.0,72,-99.99,,,-99.99,,2013-07-29 23:44:00,
2013-07-29 17:04:00,67.0,57.0,29.97,North,-999,-999.0,-999.0,70,-99.99,,,-99.99,,2013-07-30 00:04:00,
2013-07-29 17:14:00,67.0,57.0,29.97,North,-999,-999.0,-999.0,70,-99.99,,,-99.99,,2013-07-30 00:14:00,
2013-07-29 17:23:00,67.0,57.0,29.97,North,-999,-999.0,-999.0,70,-99.99,,,-99.99,,2013-07-30 00:23:00,
2013-07-29 18:05:00,65.0,56.0,29.96,North,-999,-999.0,-999.0,71,-99.99,,,-99.99,,2013-07-30 01:05:00,
2013-07-29 18:14:00,65.0,56.0,29.96,North,-999,-999.0,-999.0,71,-99.99,,,-99.99,,2013-07-30 01:14:00,
2013-07-29 18:35:00,62.0,54.0,29.96,North,-999,-999.0,-999.0,76,-99.99,,,-99.99,,2013-07-30 01:35:00,
2013-07-29 18:44:00,62.0,54.0,29.96,North,-999,-999.0,-999.0,76,-99.99,,,-99.99,,2013-07-30 01:44:00,
2013-07-29 19:04:00,63.0,56.0,29.96,North,-999,-999.0,-999.0,79,-99.99,,,-99.99,,2013-07-30 02:04:00,
2013-07-29 19:13:00,63.0,56.0,29.96,North,-999,-999.0,-999.0,79,-99.99,,,-99.99,,2013-07-30 02:13:00,
2013-07-29 19:34:00,61.0,55.0,29.96,North,-999,-999.0,-999.0,80,-99.99,,,-99.99,,2013-07-30 02:34:00,
2013-07-29 19:54:00,59.0,54.0,29.96,North,-999,-999.0,-999.0,84,-99.99,,,-99.99,,2013-07-30 02:54:00,
2013-07-29 20:06:00,59.0,54.0,29.96,North,-999,-999.0,-999.0,84,-99.99,,,-99.99,,2013-07-30 03:06:00,
2013-07-29 20:14:00,59.0,54.0,29.96,North,-999,-999.0,-999.0,84,-99.99,,,-99.99,,2013-07-30 03:14:00,
2013-07-29 20:34:00,58.0,54.0,29.96,North,-999,-999.0,-999.0,85,-99.99,,,-99.99,,2013-07-30 03:34:00,
2013-07-29 20:43:00,58.0,54.0,29.96,North,-999,-999.0,-999.0,85,-99.99,,,-99.99,,2013-07-30 03:43:00,
2013-07-29 21:02:00,58.0,54.0,29.96,North,-999,-999.0,-999.0,87,-99.99,,,-99.99,,2013-07-30 04:02:00,
2013-07-29 21:12:00,58.0,54.0,29.96,North,-999,-999.0,-999.0,87,-99.99,,,-99.99,,2013-07-30 04:12:00,
2013-07-29 21:22:00,58.0,54.0,29.96,North,-999,-999.0,-999.0,87,-99.99,,,-99.99,,2013-07-30 04:22:00,
2013-07-29 21:33:00,56.0,53.0,29.97,North,-999,-999.0,-999.0,89,-99.99,,,-99.99,,2013-07-30 04:33:00,
2013-07-29 21:43:00,56.0,53.0,29.97,North,-999,-999.0,-999.0,89,-99.99,,,-99.99,,2013-07-30 04:43:00,
2013-07-29 21:52:00,55.0,53.0,29.97,North,-999,-999.0,-999.0,91,-99.99,,,-99.99,,2013-07-30 04:52:00,
2013-07-29 22:02:00,55.0,53.0,29.97,North,-999,-999.0,-999.0,91,-99.99,,,-99.99,,2013-07-30 05:02:00,
2013-07-29 22:12:00,55.0,53.0,29.97,North,-999,-999.0,-999.0,91,-99.99,,,-99.99,,2013-07-30 05:12:00,
2013-07-29 22:45:00,55.0,53.0,29.98,North,-999,-999.0,-999.0,92,-99.99,,,-99.99,,2013-07-30 05:45:00,
2013-07-29 22:52:00,54.0,53.0,29.99,North,-999,-999.0,-999.0,93,-99.99,,,-99.99,,2013-07-30 05:52:00,
2013-07-29 23:02:00,54.0,53.0,29.99,North,-999,-999.0,-999.0,93,-99.99,,,-99.99,,2013-07-30 06:02:00,
2013-07-29 23:12:00,54.0,53.0,29.99,North,-999,-999.0,-999.0,93,-99.99,,,-99.99,,2013-07-30 06:12:00,
2013-07-29 23:32:00,54.0,52.0,29.99,North,-999,-999.0,-999.0,94,-99.99,,,-99.99,,2013-07-30 06:32:00,
2013-07-29 23:43:00,54.0,52.0,29.99,North,-999,-999.0,-999.0,94,-99.99,,,-99.99,,2013-07-30 06:43:00,